Time;durP1;ratioP1;P1;durP2;ratioP2;P2;SDS_P1;SDS_P2;PMS_P1;PMS_P2;Temp;Humidity;BMP_temperature;BMP_pressure;BME280_temperature;BME280_humidity;BME280_pressure;Samples;Min_cycle;Max_cycle;Signal;HPM_P1;HPM_P2
2022/07/18 00:02:12;;;;;;;6.43;4.60;;;;;;;19.64;44.57;99288.81;4961115;28;20307;-87
2022/07/18 00:04:37;;;;;;;8.90;4.63;;;;;;;18.08;45.01;99039.69;4957690;28;20169;-88
2022/07/18 00:07:04;;;;;;;6.23;4.30;;;;;;;22.12;45.42;99784.19;4956651;29;20655;-88
2022/07/18 00:09:29;;;;;;;5.83;4.00;;;;;;;20.07;45.35;99444.06;4958359;28;20173;-88
2022/07/18 00:11:55;;;;;;;3.87;3.40;;;;;;;21.95;44.90;99801.34;4957693;28;20232;-89
2022/07/18 00:14:21;;;;;;;6.13;4.07;;;;;;;20.27;44.70;99499.09;4974151;28;20177;-88
2022/07/18 00:16:47;;;;;;;6.67;3.90;;;;;;;17.68;44.38;99055.56;4958488;28;20677;-88
2022/07/18 00:19:13;;;;;;;4.70;3.77;;;;;;;21.92;43.92;99763.47;4973550;28;20223;-89
2022/07/18 00:21:39;;;;;;;5.87;3.43;;;;;;;20.11;43.91;99477.50;4957882;28;20169;-88
2022/07/18 00:24:04;;;;;;;4.33;3.50;;;;;;;19.52;43.49;99381.16;4972484;28;20677;-90
2022/07/18 00:26:30;;;;;;;4.80;3.80;;;;;;;20.60;43.15;99566.16;4972779;28;20637;-89
2022/07/18 00:28:55;;;;;;;7.27;3.70;;;;;;;20.32;43.00;99502.53;4958620;29;20165;-87
2022/07/18 00:31:21;;;;;;;4.83;3.57;;;;;;;18.29;42.26;99180.78;4976978;28;20173;-88
2022/07/18 00:33:46;;;;;;;5.30;3.67;;;;;;;17.65;42.21;99053.81;4961370;28;20536;-88
2022/07/18 00:36:12;;;;;;;5.77;3.17;;;;;;;21.82;41.80;99758.25;4961224;28;20241;-89
2022/07/18 00:38:37;;;;;;;6.30;3.40;;;;;;;18.64;41.40;99213.63;4961097;28;20220;-89
2022/07/18 00:41:04;;;;;;;4.43;3.30;;;;;;;19.51;41.23;99382.88;4961341;28;20176;-88
2022/07/18 00:43:30;;;;;;;3.43;3.03;;;;;;;19.65;40.62;99404.38;4960726;28;20200;-89
2022/07/18 00:45:55;;;;;;;4.93;3.40;;;;;;;18.51;40.81;99270.75;4965091;28;20225;-87
2022/07/18 00:48:21;;;;;;;3.97;2.97;;;;;;;17.64;40.32;99107.56;4965035;29;20168;-89
2022/07/18 00:50:46;;;;;;;5.77;3.50;;;;;;;21.39;40.53;99760.63;4958239;28;20216;-88
2022/07/18 00:53:13;;;;;;;5.60;3.03;;;;;;;18.83;40.49;99331.78;4971392;28;20165;-89
2022/07/18 00:55:40;;;;;;;3.80;2.93;;;;;;;20.07;41.02;99572.59;4956396;29;20200;-89
2022/07/18 00:58:08;;;;;;;5.87;3.23;;;;;;;18.67;40.67;99317.09;4957981;28;20180;-88
2022/07/18 01:03:18;;;;;;;3.13;2.70;;;;;;;20.97;40.47;99743.13;4956311;29;20239;-89
2022/07/18 01:05:44;;;;;;;4.30;3.00;;;;;;;17.94;39.86;99235.94;4955459;29;20563;-88
2022/07/18 01:08:09;;;;;;;3.47;2.70;;;;;;;20.58;39.39;99705.06;4972567;28;20180;-88
2022/07/18 01:10:34;;;;;;;4.83;2.70;;;;;;;18.04;39.98;99288.16;4955499;29;20181;-88
2022/07/18 01:13:00;;;;;;;6.10;2.70;;;;;;;20.90;40.08;99781.69;4970967;28;20173;-89
2022/07/18 01:15:26;;;;;;;3.47;2.60;;;;;;;20.98;39.69;99795.47;4955126;29;20202;-88
2022/07/18 01:17:51;;;;;;;4.30;2.73;;;;;;;18.26;39.78;99333.69;4971132;28;20230;-87
2022/07/18 01:20:17;;;;;;;4.60;2.83;;;;;;;20.43;39.95;99692.09;4957132;28;20192;-87
2022/07/18 01:22:42;;;;;;;4.03;2.90;;;;;;;18.97;39.83;99447.38;4957597;28;20742;-87
2022/07/18 01:25:10;;;;;;;3.57;2.97;;;;;;;20.21;40.26;99669.56;4971484;28;20610;-88
2022/07/18 01:27:35;;;;;;;10.57;2.93;;;;;;;20.78;40.28;99792.72;4957102;28;20203;-87
2022/07/18 01:30:01;;;;;;;3.07;2.60;;;;;;;20.76;40.59;99788.41;4956511;28;20164;-87
2022/07/18 01:32:27;;;;;;;4.63;2.77;;;;;;;17.71;40.43;99282.59;4956718;28;20167;-88
2022/07/18 01:34:52;;;;;;;3.23;2.80;;;;;;;19.86;41.00;99661.47;4956783;28;20259;-86
2022/07/18 01:37:18;;;;;;;3.80;2.77;;;;;;;19.10;41.07;99562.13;4971399;28;20223;-88
2022/07/18 01:39:45;;;;;;;3.40;2.87;;;;;;;20.58;41.22;99800.25;4959010;28;20200;-87
2022/07/18 01:42:11;;;;;;;4.03;2.80;;;;;;;20.63;41.00;99792.56;4960935;29;20224;-87
2022/07/18 01:44:38;;;;;;;4.63;2.90;;;;;;;19.31;41.13;99593.19;4962981;28;20164;-88
2022/07/18 01:47:06;;;;;;;5.70;3.03;;;;;;;18.86;41.52;99507.97;4959130;29;20180;-87
2022/07/18 01:49:32;;;;;;;4.80;2.83;;;;;;;19.72;41.50;99657.06;4958447;28;20188;-88
2022/07/18 01:51:58;;;;;;;5.27;3.10;;;;;;;20.55;41.62;99800.22;4958152;28;20626;-88
2022/07/18 01:54:26;;;;;;;3.93;2.90;;;;;;;18.44;41.89;99421.06;4957869;28;20252;-88
2022/07/18 01:56:52;;;;;;;3.87;3.03;;;;;;;20.05;41.73;99716.53;4955348;29;20181;-87
2022/07/18 01:59:18;;;;;;;7.83;3.20;;;;;;;18.56;42.13;99461.41;4957184;28;20259;-87
2022/07/18 02:01:44;;;;;;;4.90;3.00;;;;;;;18.56;42.31;99476.78;4955371;29;20299;-86
2022/07/18 02:04:10;;;;;;;3.70;2.90;;;;;;;18.69;42.67;99509.44;4953987;28;20196;-85
2022/07/18 02:06:37;;;;;;;6.87;3.23;;;;;;;20.29;43.13;99803.38;4958660;28;20175;-84
2022/07/18 02:09:04;;;;;;;5.40;3.20;;;;;;;20.33;43.40;99802.53;4957983;29;20173;-87
2022/07/18 02:11:29;;;;;;;4.50;3.10;;;;;;;18.87;43.71;99571.22;4974394;28;20179;-88
2022/07/18 02:13:54;;;;;;;6.20;3.27;;;;;;;17.78;43.97;99387.69;4961159;29;20564;-88
2022/07/18 02:16:20;;;;;;;7.37;3.50;;;;;;;15.44;44.10;98985.88;4960607;29;20173;-87
2022/07/18 02:18:45;;;;;;;5.00;3.27;;;;;;;17.61;44.41;99373.75;4977252;28;20194;-87
2022/07/18 02:21:13;;;;;;;5.73;3.30;;;;;;;16.11;44.42;99142.78;4979353;28;20188;-88
2022/07/18 02:23:39;;;;;;;5.90;3.50;;;;;;;18.36;44.77;99542.25;4962547;28;20246;-89
2022/07/18 02:26:05;;;;;;;4.40;3.37;;;;;;;18.32;45.38;99549.06;4961819;29;20176;-89
2022/07/18 02:28:30;;;;;;;4.77;3.50;;;;;;;18.00;45.16;99487.06;4962342;29;20640;-88
2022/07/18 02:30:56;;;;;;;4.57;3.67;;;;;;;15.94;45.45;99135.69;4963349;29;20259;-88
2022/07/18 02:33:21;;;;;;;6.37;3.50;;;;;;;17.22;46.05;99362.88;4979382;28;20232;-88
2022/07/18 02:35:47;;;;;;;5.83;3.70;;;;;;;16.60;46.42;99257.81;4964420;29;20168;-89
2022/07/18 02:38:12;;;;;;;5.50;3.70;;;;;;;16.64;46.34;99290.28;4961301;28;20192;-87
2022/07/18 02:40:38;;;;;;;6.00;3.83;;;;;;;18.03;47.00;99522.97;4961794;28;20188;-89
2022/07/18 02:43:03;;;;;;;5.90;3.73;;;;;;;18.36;46.94;99598.66;4962001;28;20736;-89
2022/07/18 02:45:29;;;;;;;4.50;3.93;;;;;;;17.17;46.66;99367.06;4977228;28;20550;-88
2022/07/18 02:47:55;;;;;;;5.10;3.70;;;;;;;16.00;46.36;99160.50;4975996;28;20208;-88
2022/07/18 02:50:21;;;;;;;5.33;4.00;;;;;;;18.39;46.29;99583.34;4962455;29;20177;-88
2022/07/18 02:52:47;;;;;;;5.50;3.80;;;;;;;17.89;46.18;99483.47;4981207;28;20204;-89
2022/07/18 02:55:13;;;;;;;4.63;3.30;;;;;;;19.98;46.19;99841.53;4960909;29;20170;-88
2022/07/18 02:57:40;;;;;;;5.30;3.70;;;;;;;17.97;46.50;99520.31;4963866;28;20173;-87
2022/07/18 03:00:09;;;;;;;5.13;3.40;;;;;;;19.92;46.58;99830.28;4963857;29;20172;-87
2022/07/18 03:02:35;;;;;;;5.57;3.60;;;;;;;19.88;46.14;99833.69;4963080;28;20330;-88
2022/07/18 03:05:01;;;;;;;5.20;3.57;;;;;;;17.26;46.44;99423.50;4959031;29;20169;-85
2022/07/18 03:07:27;;;;;;;7.27;3.90;;;;;;;18.33;46.24;99603.75;4959530;28;20169;-87
2022/07/18 03:09:52;;;;;;;5.07;3.57;;;;;;;17.14;46.30;99375.53;4959233;28;20653;-88
2022/07/18 03:12:18;;;;;;;4.70;3.30;;;;;;;17.79;45.90;99471.38;4957635;29;20513;-87
2022/07/18 03:14:43;;;;;;;3.70;3.10;;;;;;;17.66;45.98;99480.53;4957710;28;20557;-87
2022/07/18 03:17:09;;;;;;;5.10;3.40;;;;;;;18.53;45.59;99628.03;4957785;28;20653;-87
2022/07/18 03:19:35;;;;;;;6.80;3.50;;;;;;;17.52;45.22;99458.94;4957365;29;20593;-88
2022/07/18 03:22:02;;;;;;;5.53;3.50;;;;;;;17.68;45.43;99475.44;4959237;28;20262;-88
2022/07/18 03:24:27;;;;;;;5.70;3.40;;;;;;;17.99;45.50;99534.00;4958910;28;20255;-88
2022/07/18 03:26:53;;;;;;;4.23;3.10;;;;;;;16.98;45.07;99340.28;4958397;28;20220;-87
2022/07/18 03:29:18;;;;;;;5.10;3.10;;;;;;;19.78;44.88;99831.81;4964445;29;20187;-88
2022/07/18 03:31:44;;;;;;;4.97;3.20;;;;;;;19.17;44.57;99732.50;4985155;28;20192;-89
2022/07/18 03:34:09;;;;;;;4.87;3.27;;;;;;;17.71;44.75;99478.06;4965174;28;20212;-87
2022/07/18 03:36:34;;;;;;;5.00;3.30;;;;;;;19.17;44.69;99728.19;4960558;29;20284;-86
2022/07/18 03:39:00;;;;;;;5.70;3.00;;;;;;;18.41;44.32;99589.34;4975082;28;20180;-89
2022/07/18 03:41:26;;;;;;;4.67;3.20;;;;;;;18.29;44.22;99578.06;4959449;28;20165;-89
2022/07/18 03:43:51;;;;;;;4.70;2.90;;;;;;;18.76;43.98;99648.03;4957536;29;20280;-89
2022/07/18 03:46:17;;;;;;;4.40;2.80;;;;;;;16.35;43.75;99245.41;4960161;29;20276;-88
2022/07/18 03:48:42;;;;;;;4.37;3.00;;;;;;;17.83;43.65;99514.09;4965912;29;20195;-88
2022/07/18 03:51:07;;;;;;;5.10;3.07;;;;;;;15.25;42.90;99009.34;4976922;28;20252;-88
2022/07/18 03:53:33;;;;;;;4.20;3.23;;;;;;;17.59;42.74;99401.91;4976614;28;20255;-88
2022/07/18 03:55:59;;;;;;;6.27;3.03;;;;;;;16.78;42.86;99252.16;4975023;28;20263;-87
2022/07/18 03:58:25;;;;;;;6.53;3.20;;;;;;;15.77;42.59;99086.03;4959576;28;20255;-89
2022/07/18 04:00:51;;;;;;;4.53;2.80;;;;;;;15.93;42.65;99112.72;4959587;28;20255;-88
2022/07/18 04:03:17;;;;;;;6.57;3.17;;;;;;;17.88;42.48;99451.00;4974687;28;20266;-87
2022/07/18 04:05:43;;;;;;;5.33;3.10;;;;;;;18.65;42.54;99582.06;4956061;29;20177;-89
2022/07/18 04:08:09;;;;;;;4.17;3.20;;;;;;;19.78;42.07;99741.88;4956878;28;20523;-87
2022/07/18 04:10:34;;;;;;;4.93;2.83;;;;;;;18.40;42.11;99529.53;4970479;28;20212;-86
2022/07/18 04:12:59;;;;;;;5.50;3.03;;;;;;;17.62;41.59;99344.78;4971559;28;20177;-88
2022/07/18 04:15:25;;;;;;;5.23;2.80;;;;;;;20.72;41.74;99859.56;4956493;28;20278;-88
2022/07/18 04:17:52;;;;;;;4.83;3.10;;;;;;;18.23;40.89;99424.22;4956334;28;20172;-89
2022/07/18 04:20:19;;;;;;;5.13;3.17;;;;;;;18.61;41.24;99509.34;4957306;28;20172;-89
2022/07/18 04:22:50;;;;;;;4.40;2.90;;;;;;;20.81;40.77;99849.38;4957878;28;20275;-88
2022/07/18 04:25:16;;;;;;;4.37;3.03;;;;;;;21.03;40.54;99863.31;4957688;28;20165;-88
2022/07/18 04:27:42;;;;;;;4.43;2.83;;;;;;;18.82;40.65;99499.34;4971088;28;20180;-88
2022/07/18 04:30:08;;;;;;;7.73;3.03;;;;;;;19.37;40.01;99567.59;4957100;28;20172;-88
2022/07/18 04:32:34;;;;;;;5.57;2.73;;;;;;;20.53;40.00;99778.78;4959518;28;20224;-86
2022/07/18 04:34:59;;;;;;;4.90;2.70;;;;;;;18.47;40.07;99409.97;4958294;28;20185;-87
2022/07/18 04:37:24;;;;;;;3.83;2.80;;;;;;;20.64;39.09;99755.72;4957476;28;20524;-86
2022/07/18 04:39:50;;;;;;;4.20;2.70;;;;;;;19.99;39.21;99658.22;4956803;28;20196;-88
2022/07/18 04:42:15;;;;;;;7.80;2.60;;;;;;;19.25;39.23;99534.09;4959266;28;20204;-89
2022/07/18 04:44:41;;;;;;;6.33;2.60;;;;;;;19.28;38.74;99543.53;4958059;29;20192;-87
2022/07/18 04:47:07;;;;;;;6.90;2.50;;;;;;;19.84;39.14;99646.88;4942444;28;20574;-88
2022/07/18 04:49:32;;;;;;;3.73;2.53;;;;;;;18.69;38.66;99435.94;4968019;28;20712;-89
2022/07/18 04:51:58;;;;;;;4.37;2.40;;;;;;;18.40;38.59;99344.97;4992026;28;20658;-89
2022/07/18 04:54:25;;;;;;;3.97;2.80;;;;;;;20.96;38.52;99786.84;4971439;28;20183;-89
2022/07/18 04:56:51;;;;;;;4.60;2.80;;;;;;;21.38;38.23;99859.34;4994713;28;20212;-88
2022/07/18 04:59:16;;;;;;;5.47;2.60;;;;;;;19.88;38.91;99584.41;4964170;28;20684;-88
2022/07/18 05:01:42;;;;;;;5.30;2.70;;;;;;;20.59;38.55;99693.94;4961521;28;20300;-88
2022/07/18 05:04:07;;;;;;;3.33;2.67;;;;;;;20.14;38.12;99594.91;4967585;28;20329;-91
2022/07/18 05:06:32;;;;;;;5.20;2.50;;;;;;;21.94;38.82;99931.09;4987126;28;20579;-88
2022/07/18 05:09:01;;;;;;;3.43;2.50;;;;;;;21.16;38.76;99769.91;4987304;28;20671;-90
2022/07/18 05:11:26;;;;;;;4.80;2.80;;;;;;;21.41;38.28;99781.22;4979185;28;20186;-88
2022/07/18 05:13:52;;;;;;;5.93;2.63;;;;;;;18.00;39.17;99236.00;4975549;28;20179;-87
2022/07/18 05:16:17;;;;;;;4.17;2.67;;;;;;;18.49;39.73;99305.75;4987858;28;20725;-89
2022/07/18 05:18:43;;;;;;;5.50;2.70;;;;;;;19.54;40.14;99477.03;4963192;28;20192;-89
2022/07/18 05:21:08;;;;;;;3.70;2.57;;;;;;;20.81;39.29;99658.94;4975447;28;20650;-90
2022/07/18 05:23:34;;;;;;;4.13;2.70;;;;;;;19.02;39.74;99388.38;4989558;28;20275;-89
2022/07/18 05:25:59;;;;;;;4.53;2.60;;;;;;;20.60;38.90;99633.06;4976592;28;20208;-90
2022/07/18 05:28:24;;;;;;;5.70;2.80;;;;;;;21.77;37.97;99802.94;4977412;28;20194;-89
2022/07/18 05:30:50;;;;;;;4.67;2.80;;;;;;;22.05;38.20;99864.97;4973424;28;20932;-89
2022/07/18 05:33:15;;;;;;;5.77;2.67;;;;;;;21.50;38.45;99800.19;4968485;28;20223;-90
2022/07/18 05:35:41;;;;;;;3.93;2.63;;;;;;;20.70;38.31;99649.41;4963316;28;20188;-89
2022/07/18 05:38:07;;;;;;;4.17;2.50;;;;;;;22.39;38.40;99933.91;4962524;28;20251;-90
2022/07/18 05:40:32;;;;;;;5.37;2.90;;;;;;;21.76;38.75;99816.66;4960973;29;20192;-92
2022/07/18 05:42:58;;;;;;;4.37;2.57;;;;;;;18.65;38.75;99302.53;4955357;29;20208;-88
2022/07/18 05:45:24;;;;;;;3.83;2.67;;;;;;;20.30;38.54;99566.81;4954256;29;20191;-89
2022/07/18 05:47:54;;;;;;;4.17;2.80;;;;;;;19.07;38.17;99320.88;4969712;28;20198;-90
2022/07/18 05:50:33;;;;;;;3.50;2.50;;;;;;;22.20;37.91;99845.25;4975446;28;20657;-93
2022/07/18 05:52:59;;;;;;;4.43;2.93;;;;;;;19.86;38.44;99476.47;4976496;28;20187;-89
2022/07/18 05:55:24;;;;;;;5.07;2.80;;;;;;;20.42;38.55;99541.19;4973255;28;20235;-90
2022/07/18 05:57:50;;;;;;;5.00;2.80;;;;;;;21.86;38.60;99784.06;4954743;28;20185;-89
2022/07/18 06:00:16;;;;;;;7.17;2.83;;;;;;;22.74;38.33;99911.72;4952186;28;20193;-86
2022/07/18 06:02:42;;;;;;;6.70;2.90;;;;;;;20.96;37.65;99596.38;4952666;29;20967;-90
2022/07/18 06:05:09;;;;;;;4.53;3.07;;;;;;;20.18;37.90;99484.44;4957777;28;20236;-88
2022/07/18 06:07:35;;;;;;;4.93;2.60;;;;;;;22.85;38.12;99917.75;4955790;28;20188;-90
2022/07/18 06:10:03;;;;;;;4.30;2.90;;;;;;;21.19;37.35;99558.75;4971045;28;20206;-88
2022/07/18 06:12:30;;;;;;;6.10;2.60;;;;;;;18.14;37.68;99064.50;4971887;28;20222;-88
2022/07/18 06:14:56;;;;;;;4.10;2.63;;;;;;;21.12;37.71;99590.50;4971738;28;20172;-89
2022/07/18 06:17:22;;;;;;;7.37;2.90;;;;;;;20.48;37.69;99479.50;4970997;28;20192;-90
2022/07/18 06:19:47;;;;;;;5.70;3.00;;;;;;;21.74;36.66;99612.19;4973055;28;20191;-87
2022/07/18 06:22:13;;;;;;;4.33;2.60;;;;;;;23.63;36.90;99904.94;4988115;28;20192;-88
2022/07/18 06:24:38;;;;;;;4.50;2.80;;;;;;;21.45;36.90;99533.94;4972384;28;20183;-89
2022/07/18 06:27:04;;;;;;;4.17;2.70;;;;;;;22.47;36.88;99696.56;4971702;28;20258;-90
2022/07/18 06:29:29;;;;;;;4.43;2.63;;;;;;;21.22;37.07;99468.66;4970479;28;20195;-87
2022/07/18 06:31:55;;;;;;;5.07;2.93;;;;;;;23.29;33.97;99785.22;4972040;28;20176;-88
2022/07/18 06:34:20;;;;;;;3.70;2.50;;;;;;;23.09;34.28;99710.31;4971570;28;20183;-87
2022/07/18 06:36:48;;;;;;;6.47;2.90;;;;;;;20.88;35.01;99325.22;4971576;28;20625;-88
2022/07/18 06:39:16;;;;;;;4.30;3.10;;;;;;;21.30;35.23;99430.03;4986963;28;20359;-88
2022/07/18 06:41:47;;;;;;;5.40;3.00;;;;;;;22.00;35.48;99469.59;4972608;28;20180;-87
2022/07/18 06:44:13;;;;;;;8.40;3.40;;;;;;;23.87;34.44;99693.69;4975456;28;20548;-86
2022/07/18 06:46:39;;;;;;;10.97;3.00;;;;;;;23.05;35.18;99635.41;4977534;28;20210;-84
2022/07/18 06:49:05;;;;;;;8.57;5.30;;;;;;;23.70;34.19;99685.19;4978096;28;20231;-89
2022/07/18 06:51:31;;;;;;;11.93;7.03;;;;;;;25.42;34.22;99900.75;4974287;28;20243;-89
2022/07/18 06:53:57;;;;;;;14.83;7.13;;;;;;;23.09;34.30;99500.25;4977160;28;20645;-90
2022/07/18 06:56:23;;;;;;;8.70;3.57;;;;;;;25.67;33.81;99899.72;4972374;28;20184;-90
2022/07/18 06:58:50;;;;;;;3.53;2.80;;;;;;;24.28;32.70;99600.31;4975042;28;20314;-88
2022/07/18 07:01:17;;;;;;;3.33;2.77;;;;;;;25.45;33.06;99783.19;4966613;29;20770;-90
2022/07/18 07:03:42;;;;;;;5.43;2.90;;;;;;;25.99;31.69;99815.47;4971874;28;20246;-91
2022/07/18 07:06:08;;;;;;;5.37;2.50;;;;;;;25.20;31.91;99668.53;4945377;28;20231;-89
2022/07/18 07:08:34;;;;;;;5.87;2.40;;;;;;;25.24;31.64;99702.16;4972385;28;20192;-89
2022/07/18 07:11:00;;;;;;;5.47;2.60;;;;;;;25.82;31.54;99774.19;4958517;29;20196;-90
2022/07/18 07:13:25;;;;;;;5.30;2.50;;;;;;;25.34;31.56;99691.69;4964209;29;20189;-90
2022/07/18 07:15:51;;;;;;;3.00;2.40;;;;;;;24.60;31.69;99518.06;4972605;28;20188;-90
2022/07/18 07:18:16;;;;;;;3.23;2.37;;;;;;;25.82;31.24;99788.88;4974463;28;20195;-89
2022/07/18 07:20:42;;;;;;;3.50;2.60;;;;;;;24.86;32.03;99693.91;4976390;28;20184;-91
2022/07/18 07:23:08;;;;;;;4.17;2.90;;;;;;;25.54;31.82;99693.25;4991028;28;20254;-89
2022/07/18 07:25:34;;;;;;;4.97;2.50;;;;;;;27.18;30.51;99907.41;4990260;28;20180;-90
2022/07/18 07:28:00;;;;;;;4.87;2.50;;;;;;;25.52;30.35;99621.53;4992363;28;20188;-91
2022/07/18 07:30:25;;;;;;;4.10;2.50;;;;;;;26.63;30.14;99772.22;4974069;28;20187;-90
2022/07/18 07:32:51;;;;;;;5.68;2.50;;;;;;;27.35;29.79;99904.53;4990975;28;20196;-90
2022/07/18 07:35:18;;;;;;;4.33;2.60;;;;;;;25.61;30.57;99643.00;4972838;28;20308;-90
2022/07/18 07:37:55;;;;;;;5.20;2.40;;;;;;;26.53;29.64;99899.66;4978840;28;20192;-90
2022/07/18 07:40:24;;;;;;;3.83;2.10;;;;;;;25.87;29.63;99762.00;4956073;28;20239;-90
2022/07/18 07:42:50;;;;;;;3.33;2.23;;;;;;;27.11;28.95;99807.00;4957632;29;20209;-88
2022/07/18 07:45:16;;;;;;;4.70;2.65;;;;;;;27.84;28.91;99878.56;4974687;28;20197;-88
2022/07/18 07:47:42;;;;;;;5.65;2.50;;;;;;;25.83;28.58;99534.59;4975063;28;20749;-88
2022/07/18 07:50:09;;;;;;;5.43;2.42;;;;;;;27.47;28.23;99827.19;4983182;28;20178;-88
2022/07/18 07:52:35;;;;;;;3.95;2.30;;;;;;;26.11;29.06;99654.41;4981988;28;20244;-88
2022/07/18 07:55:00;;;;;;;3.50;2.50;;;;;;;26.42;28.96;99767.34;4994126;28;20184;-84
2022/07/18 07:57:26;;;;;;;3.38;2.53;;;;;;;27.30;28.09;99805.81;4992162;28;20749;-89
2022/07/18 07:59:52;;;;;;;4.13;2.53;;;;;;;27.16;27.56;99721.13;4967390;28;20178;-88
2022/07/18 08:02:18;;;;;;;3.75;2.30;;;;;;;28.53;27.35;99894.56;4953339;28;20231;-87
2022/07/18 08:04:44;;;;;;;3.40;2.28;;;;;;;27.87;27.25;99813.44;4942746;28;20192;-88
2022/07/18 08:07:09;;;;;;;4.85;2.38;;;;;;;27.92;27.16;99772.53;4954823;28;20254;-87
2022/07/18 08:09:35;;;;;;;4.10;2.20;;;;;;;28.79;26.20;99878.41;4954092;29;20194;-87
2022/07/18 08:12:00;;;;;;;4.25;2.38;;;;;;;29.28;25.89;99899.88;4954789;28;20558;-87
2022/07/18 08:14:26;;;;;;;3.85;2.22;;;;;;;26.61;26.34;99643.25;4955460;28;20184;-88
2022/07/18 08:16:51;;;;;;;5.38;2.10;;;;;;;27.06;26.38;99639.00;4972294;28;20639;-88
2022/07/18 08:19:17;;;;;;;4.65;2.60;;;;;;;28.54;25.39;99769.44;4954395;28;20653;-87
2022/07/18 08:21:42;;;;;;;2.72;1.88;;;;;;;28.73;24.39;99826.41;4954079;29;20255;-86
2022/07/18 08:24:09;;;;;;;3.53;1.95;;;;;;;27.69;24.63;99696.72;4954782;29;20717;-86
2022/07/18 08:26:38;;;;;;;6.72;2.40;;;;;;;27.08;24.33;99497.72;4952515;28;20205;-88
2022/07/18 08:29:04;;;;;;;3.08;1.95;;;;;;;27.91;23.95;99578.22;4954276;28;20635;-87
2022/07/18 08:31:29;;;;;;;3.58;2.20;;;;;;;26.87;24.76;99409.81;4959165;28;20198;-88
2022/07/18 08:33:55;;;;;;;2.72;2.10;;;;;;;28.90;24.07;99746.91;4973034;28;20197;-87
2022/07/18 08:36:20;;;;;;;3.70;2.30;;;;;;;29.48;24.43;99871.50;4987855;28;20191;-87
2022/07/18 08:38:46;;;;;;;4.07;2.40;;;;;;;28.91;23.80;99779.91;4969477;28;20183;-89
2022/07/18 08:41:12;;;;;;;3.20;2.60;;;;;;;28.45;23.82;99636.81;4953926;28;20216;-88
2022/07/18 08:43:40;;;;;;;3.63;2.33;;;;;;;29.77;23.87;99827.25;4956787;28;20607;-87
2022/07/18 08:46:06;;;;;;;4.95;2.40;;;;;;;28.58;24.57;99632.16;4956838;29;20669;-88
2022/07/18 08:48:32;;;;;;;4.70;2.40;;;;;;;29.02;23.76;99711.84;4952818;28;20423;-87
2022/07/18 08:51:04;;;;;;;3.75;2.38;;;;;;;29.16;24.06;99738.41;4970020;28;20189;-89
2022/07/18 08:53:30;;;;;;;4.53;2.67;;;;;;;29.59;24.22;99759.00;4968549;28;20195;-86
2022/07/18 08:55:56;;;;;;;3.97;2.70;;;;;;;27.27;24.77;99467.81;4987978;28;20188;-88
2022/07/18 08:58:22;;;;;;;7.43;2.70;;;;;;;30.13;24.92;99892.44;4956723;28;20260;-87
2022/07/18 09:00:47;;;;;;;6.28;2.70;;;;;;;27.95;25.70;99591.13;4954034;29;20198;-87
2022/07/18 09:03:13;;;;;;;4.05;2.70;;;;;;;29.53;25.02;99890.50;4972207;28;20327;-87
2022/07/18 09:05:41;;;;;;;4.72;2.50;;;;;;;29.98;25.15;99882.41;4963263;28;20697;-87
2022/07/18 09:08:21;;;;;;;6.10;3.00;;;;;;;30.38;25.14;99888.28;4987997;28;20254;-88
2022/07/18 09:10:56;;;;;;;6.03;3.30;;;;;;;30.08;25.49;99891.72;4986700;28;20689;-89
2022/07/18 09:13:24;;;;;;;5.25;2.55;;;;;;;28.90;25.56;99675.69;4972709;28;20209;-88
2022/07/18 09:16:16;;;;;;;4.43;2.90;;;;;;;29.59;24.96;99775.53;4972422;28;20243;-88
2022/07/18 09:18:47;;;;;;;7.70;2.90;;;;;;;29.92;25.03;99778.97;4973238;28;20224;-88
2022/07/18 09:21:20;;;;;;;3.80;2.38;;;;;;;29.82;25.79;99861.09;4973550;28;20186;-85
2022/07/18 09:23:48;;;;;;;5.20;2.55;;;;;;;29.84;25.25;99851.44;4974213;28;20214;-87
2022/07/18 09:26:36;;;;;;;6.15;2.70;;;;;;;28.33;25.17;99530.31;4987235;28;20331;-87
2022/07/18 09:29:03;;;;;;;4.63;3.00;;;;;;;30.88;24.25;99894.56;4972592;28;20207;-86
2022/07/18 09:31:28;;;;;;;5.60;2.80;;;;;;;30.19;26.12;99894.91;4972228;28;20184;-87
2022/07/18 09:34:02;;;;;;;6.22;3.25;;;;;;;29.93;26.24;99779.84;4986793;28;20182;-87
2022/07/18 09:36:28;;;;;;;3.80;2.90;;;;;;;30.19;26.86;99884.44;4971807;28;20189;-87
2022/07/18 09:38:54;;;;;;;7.22;2.90;;;;;;;27.64;26.99;99516.41;4953072;29;20176;-87
2022/07/18 09:41:24;;;;;;;4.82;2.80;;;;;;;29.22;26.40;99725.25;4970265;28;20906;-87
2022/07/18 09:43:50;;;;;;;7.25;2.90;;;;;;;30.51;26.85;99896.59;4952364;28;20221;-86
2022/07/18 09:46:15;;;;;;;7.20;2.90;;;;;;;29.33;26.03;99704.09;4952823;29;20182;-87
2022/07/18 09:48:41;;;;;;;3.50;2.90;;;;;;;30.05;25.61;99776.88;4952561;28;20834;-87
2022/07/18 09:51:07;;;;;;;7.72;2.97;;;;;;;29.85;25.30;99782.69;4954816;29;20191;-87
2022/07/18 09:53:41;;;;;;;7.15;3.42;;;;;;;29.98;26.23;99883.28;4954437;29;20188;-87
2022/07/18 09:56:08;;;;;;;5.07;3.38;;;;;;;30.05;25.96;99884.81;4971630;28;20256;-87
2022/07/18 09:58:36;;;;;;;6.13;2.97;;;;;;;30.10;26.09;99888.16;4954341;28;20275;-88
2022/07/18 10:01:04;;;;;;;5.50;2.90;;;;;;;28.36;25.65;99539.81;4952833;29;20177;-88
2022/07/18 10:03:30;;;;;;;4.43;2.92;;;;;;;29.63;26.01;99713.66;4966975;28;20697;-89
2022/07/18 10:05:57;;;;;;;3.85;2.90;;;;;;;28.90;25.80;99714.78;4932835;28;20246;-88
2022/07/18 10:08:24;;;;;;;6.40;2.90;;;;;;;29.49;26.20;99789.72;4952846;28;20277;-88
2022/07/18 10:10:52;;;;;;;9.93;4.07;;;;;;;29.02;25.15;99625.78;4953506;29;20194;-87
2022/07/18 10:13:19;;;;;;;3.95;2.88;;;;;;;28.43;25.10;99581.28;4952949;28;20733;-88
2022/07/18 10:15:45;;;;;;;5.20;3.20;;;;;;;30.48;25.59;99858.34;4955505;29;20188;-87
2022/07/18 10:18:20;;;;;;;5.40;3.10;;;;;;;29.52;25.67;99646.13;4957896;28;20277;-88
2022/07/18 10:20:47;;;;;;;3.90;3.50;;;;;;;30.78;26.12;99856.56;4955508;28;20202;-86
2022/07/18 10:23:39;;;;;;;4.25;3.33;;;;;;;30.83;26.14;99850.28;4952997;29;20207;-86
2022/07/18 10:26:21;;;;;;;4.63;3.17;;;;;;;30.06;26.40;99829.06;4954695;28;20199;-87
2022/07/18 10:28:56;;;;;;;6.20;3.45;;;;;;;28.48;27.41;99604.63;4956184;28;20187;-87
2022/07/18 10:31:54;;;;;;;6.72;3.47;;;;;;;29.45;27.88;99753.31;4956366;29;20186;-86
2022/07/18 10:34:29;;;;;;;6.30;3.33;;;;;;;30.01;28.02;99832.69;4940485;29;20321;-86
2022/07/18 10:36:54;;;;;;;6.38;3.30;;;;;;;30.31;28.00;99840.50;4938840;29;20237;-87
2022/07/18 10:39:31;;;;;;;8.55;5.10;;;;;;;30.17;27.27;99847.03;4968372;28;20234;-86
2022/07/18 10:42:02;;;;;;;3.92;3.30;;;;;;;30.45;27.17;99844.50;4973295;28;20180;-85
2022/07/18 10:44:28;;;;;;;6.13;3.00;;;;;;;30.63;26.83;99834.34;4974293;28;20210;-85
2022/07/18 10:47:02;;;;;;;7.68;3.20;;;;;;;30.62;25.80;99840.50;4978650;28;20239;-86
2022/07/18 10:49:49;;;;;;;5.43;3.22;;;;;;;30.69;26.50;99834.16;4954894;29;20991;-86
2022/07/18 10:52:26;;;;;;;6.40;3.60;;;;;;;30.40;27.62;99836.81;4954757;29;20203;-87
2022/07/18 10:55:04;;;;;;;6.30;3.70;;;;;;;30.12;28.64;99835.88;4953412;29;20192;-86
2022/07/18 10:57:33;;;;;;;5.60;3.92;;;;;;;29.76;28.50;99835.09;4954086;29;20194;-86
2022/07/18 11:00:00;;;;;;;6.78;3.97;;;;;;;30.23;28.37;99828.56;4957366;28;20707;-85
2022/07/18 11:02:35;;;;;;;6.35;4.00;;;;;;;30.40;28.01;99831.59;4955311;28;20322;-85
2022/07/18 11:05:01;;;;;;;6.43;3.95;;;;;;;29.52;27.88;99702.69;4951771;29;20285;-84
2022/07/18 11:07:27;;;;;;;6.47;4.50;;;;;;;29.71;27.85;99782.16;4941740;28;20321;-85
2022/07/18 11:09:52;;;;;;;6.43;4.13;;;;;;;29.99;28.50;99816.22;4952898;29;20831;-84
2022/07/18 11:12:20;;;;;;;9.10;4.45;;;;;;;28.87;28.82;99606.19;4954163;29;20562;-85
2022/07/18 11:15:09;;;;;;;5.85;4.20;;;;;;;30.38;29.46;99818.53;4953711;29;20197;-85
2022/07/18 11:17:54;;;;;;;6.70;4.07;;;;;;;30.32;28.47;99742.94;4953307;29;20349;-84
2022/07/18 11:20:38;;;;;;;4.20;3.72;;;;;;;30.40;29.04;99740.13;4948495;28;20254;-83
2022/07/18 11:23:17;;;;;;;7.82;4.20;;;;;;;30.18;29.16;99665.91;4958149;28;20218;-82
2022/07/18 11:25:43;;;;;;;6.70;3.80;;;;;;;30.51;29.08;99726.72;4951655;29;20190;-80
2022/07/18 11:28:10;;;;;;;9.98;4.30;;;;;;;30.52;28.92;99726.66;4943611;28;20633;-83
2022/07/18 11:30:37;;;;;;;5.95;4.28;;;;;;;30.17;28.93;99658.94;4935826;29;20180;-82
2022/07/18 11:33:02;;;;;;;6.22;4.35;;;;;;;31.14;28.38;99794.38;4935425;29;20247;-82
2022/07/18 11:35:29;;;;;;;6.40;4.20;;;;;;;30.96;27.99;99798.44;4935713;29;20216;-83
2022/07/18 11:37:55;;;;;;;7.35;4.30;;;;;;;31.16;28.34;99769.88;4936122;29;20191;-82